Williams, AZ

4:21 AM MST on August 28, 2014 (GMT -0700)
APRSWXNET Parks AZ US | Change Station
CLOSE
Current Station
Personal Weather Station
Location: Parks, AZ
Elevation: 6794 ft
Nearby Weather Stations

Elev 6794 ft 35.17 °N, 111.95 °W | Updated 48 minutes ago

Clear
Clear
44.0 °F
Feels Like 44.0 °F
N
0.0
Wind Variable Wind from ESE
Gusts 0.0 mph

Today
High -- | Low -- °F
--% Chance of Precip.
Yesterday
High -- | Low -- °F
Precip. -- in
5:57 AM 6:59 PM
Waxing Crescent, 7% visible
Pressure 30.40 in
Visibility 10.0 miles
Clouds Clear
Dew Point 43.0 °F
Humidity 95%
Rainfall 0.00 in
Snow Depth 0 in
UV 0 out of 12
Pollen 6.50 out of 12
Air Quality Not available.
Flu Activity Not available.
METAR KCMR 281115Z AUTO 15006KT 10SM CLR 09/08 A3040 RMK AO1

More Conditions Fewer Conditions

Pressure 30.40 in
Visibility 10.0 miles
Clouds Clear
Dew Point 43.0 °F
Humidity 95%
Rainfall 0.00 in
Snow Depth 0 in
UV 0 out of 12
Pollen 6.50 out of 12
Air Quality Not available.
Flu Activity Not available.
METAR KCMR 281115Z AUTO 15006KT 10SM CLR 09/08 A3040 RMK AO1

More Conditions Fewer Conditions

10-Day Weather Forecast

Almanac

Astronomy

Aug. 28, 2014 Rise Set
Actual Time 5:57 AM MST 6:59 PM MST
Civil Twilight 5:31 AM MST 7:25 PM MST
Nautical Twilight 5:00 AM MST 7:56 PM MST
Astronomical Twilight 4:28 AM MST 8:28 PM MST
Moon 8:45 AM MST 8:35 PM MST
Length of Visible Light 13h 54m
Length of Day
13h 02m
Tomorrow will be 2m 5s shorter.
Waxing Crescent, 7% of the Moon is Illuminated
Today
Waxing Crescent
Sep 2
First Quarter
Sep 8
Full
Sep 15
Last Quarter
Sep 24
New

Today's Extremes

State Highs State Lows

Community

WunderPhotos

Upload Photos

1,747,923 photos uploaded!

Nearby

Snow Depth

Station Depth Elevation
White Horse Lake 0 in 7180 ft
Snowslide Canyon 1 in 9730 ft
Mormon Mountain 0 in 7500 ft
Promontory 0 in 7930 ft
Heber 0 in 7640 ft

Earthquake Activity

City Distance Mag. Time & Date
No recent earthquake activity has been reported nearby.
Minimum magnitude displayed is 2.5.

Coastal Water Temperatures

Place Temperature
No Stations Reporting

Nearby Weather Stations